Himrod, New York
Current Conditions -  °F | °C
As of 4:53 PM on Monday 24 Nov 2014 (Local Time) from KPEO Reporting Station
Clear Clear  
Wind Chill: 63°   Ceiling: Unl
Heat Index: 63°   Visibility: 10mi
Dew Point: 47°   Wind: 10mph
Humidity: 56%   Direction: 200°SSW
Pressure: 29.4"   Gusts: NA
Location:  42.59°N, 76.96°W
Report Text: KPEO 242153Z AUTO 20009KT 10SM CLR 17/08 A2940 RMK AO2 PK WND 22032/2108 RAB03E16 SLP952 P0000 T01720083
Loading
Personal Weather Stations






























Interactive Weather Map New forecast layout! Learn more

10-Day Weather Forecast

Advertisements
Track Severe Weather on mobile